<?xml version="1.0" encoding="UTF-8" standalone="no" ?>
<gpx xmlns="http://www.topografix.com/GPX/1/1" xmlns:xsi="http://www.w3.org/2001/XMLSchema-instance" xsi:schemaLocation="http://www.topografix.com/GPX/1/1 http://www.topografix.com/GPX/1/1/gpx.xsd" version="1.1" creator="VisuGPX - https://www.visugpx.com">
  <metadata>
    <name>12082361-Les terres blanches/ château de Chambert</name>
  </metadata>
  <trk>
    <name><![CDATA[12082361-Les terres blanches/ château de Chambert]]></name>
    <trkseg>
      <trkpt lat="44.416" lon="1.16087">
        <ele>186</ele>
        <time>2021-02-11T20:20:11Z</time>
      </trkpt>
      <trkpt lat="44.41628" lon="1.15838">
        <ele>175</ele>
        <time>2021-02-11T20:22:35Z</time>
      </trkpt>
      <trkpt lat="44.41623" lon="1.15881">
        <ele>176</ele>
        <time>2021-02-11T20:23:00Z</time>
      </trkpt>
      <trkpt lat="44.41631" lon="1.15723">
        <ele>178</ele>
        <time>2021-02-11T20:24:31Z</time>
      </trkpt>
      <trkpt lat="44.4161" lon="1.15513">
        <ele>185</ele>
        <time>2021-02-11T20:26:32Z</time>
      </trkpt>
      <trkpt lat="44.41582" lon="1.15441">
        <ele>190</ele>
        <time>2021-02-11T20:27:19Z</time>
      </trkpt>
      <trkpt lat="44.41603" lon="1.15382">
        <ele>184</ele>
        <time>2021-02-11T20:27:57Z</time>
      </trkpt>
      <trkpt lat="44.41636" lon="1.1535">
        <ele>180</ele>
        <time>2021-02-11T20:28:29Z</time>
      </trkpt>
      <trkpt lat="44.41752" lon="1.15297">
        <ele>168</ele>
        <time>2021-02-11T20:30:06Z</time>
      </trkpt>
      <trkpt lat="44.4193" lon="1.15004">
        <ele>154</ele>
        <time>2021-02-11T20:33:46Z</time>
      </trkpt>
      <trkpt lat="44.41953" lon="1.14853">
        <ele>154</ele>
        <time>2021-02-11T20:35:15Z</time>
      </trkpt>
      <trkpt lat="44.41984" lon="1.14723">
        <ele>152</ele>
        <time>2021-02-11T20:36:33Z</time>
      </trkpt>
      <trkpt lat="44.42159" lon="1.1473">
        <ele>147</ele>
        <time>2021-02-11T20:38:53Z</time>
      </trkpt>
      <trkpt lat="44.42255" lon="1.14626">
        <ele>148</ele>
        <time>2021-02-11T20:40:30Z</time>
      </trkpt>
      <trkpt lat="44.4244" lon="1.14553">
        <ele>165</ele>
        <time>2021-02-11T20:43:04Z</time>
      </trkpt>
      <trkpt lat="44.42693" lon="1.14423">
        <ele>186</ele>
        <time>2021-02-11T20:46:40Z</time>
      </trkpt>
      <trkpt lat="44.42847" lon="1.1436">
        <ele>192</ele>
        <time>2021-02-11T20:48:49Z</time>
      </trkpt>
      <trkpt lat="44.43012" lon="1.14214">
        <ele>194</ele>
        <time>2021-02-11T20:51:25Z</time>
      </trkpt>
      <trkpt lat="44.4309" lon="1.14205">
        <ele>197</ele>
        <time>2021-02-11T20:52:27Z</time>
      </trkpt>
      <trkpt lat="44.43149" lon="1.14091">
        <ele>192</ele>
        <time>2021-02-11T20:53:48Z</time>
      </trkpt>
      <trkpt lat="44.43249" lon="1.13987">
        <ele>187</ele>
        <time>2021-02-11T20:55:28Z</time>
      </trkpt>
      <trkpt lat="44.43345" lon="1.1398">
        <ele>182</ele>
        <time>2021-02-11T20:56:45Z</time>
      </trkpt>
      <trkpt lat="44.43448" lon="1.1394">
        <ele>176</ele>
        <time>2021-02-11T20:58:10Z</time>
      </trkpt>
      <trkpt lat="44.43468" lon="1.13875">
        <ele>173</ele>
        <time>2021-02-11T20:58:51Z</time>
      </trkpt>
      <trkpt lat="44.43486" lon="1.13738">
        <ele>160</ele>
        <time>2021-02-11T21:00:10Z</time>
      </trkpt>
      <trkpt lat="44.43517" lon="1.1368">
        <ele>157</ele>
        <time>2021-02-11T21:00:52Z</time>
      </trkpt>
      <trkpt lat="44.43587" lon="1.13633">
        <ele>155</ele>
        <time>2021-02-11T21:01:54Z</time>
      </trkpt>
      <trkpt lat="44.43589" lon="1.1359">
        <ele>146</ele>
        <time>2021-02-11T21:02:19Z</time>
      </trkpt>
      <trkpt lat="44.4357" lon="1.13589">
        <ele>145</ele>
        <time>2021-02-11T21:02:34Z</time>
      </trkpt>
      <trkpt lat="44.43554" lon="1.13594">
        <ele>145</ele>
        <time>2021-02-11T21:02:47Z</time>
      </trkpt>
      <trkpt lat="44.43527" lon="1.13602">
        <ele>144</ele>
        <time>2021-02-11T21:03:09Z</time>
      </trkpt>
      <trkpt lat="44.43508" lon="1.13602">
        <ele>142</ele>
        <time>2021-02-11T21:03:24Z</time>
      </trkpt>
      <trkpt lat="44.43496" lon="1.13591">
        <ele>139</ele>
        <time>2021-02-11T21:03:36Z</time>
      </trkpt>
      <trkpt lat="44.43491" lon="1.13555">
        <ele>135</ele>
        <time>2021-02-11T21:03:57Z</time>
      </trkpt>
      <trkpt lat="44.4349" lon="1.13494">
        <ele>130</ele>
        <time>2021-02-11T21:04:32Z</time>
      </trkpt>
      <trkpt lat="44.43501" lon="1.1341">
        <ele>130</ele>
        <time>2021-02-11T21:05:20Z</time>
      </trkpt>
      <trkpt lat="44.43522" lon="1.13346">
        <ele>132</ele>
        <time>2021-02-11T21:06:01Z</time>
      </trkpt>
      <trkpt lat="44.43545" lon="1.13299">
        <ele>137</ele>
        <time>2021-02-11T21:06:33Z</time>
      </trkpt>
      <trkpt lat="44.43598" lon="1.13326">
        <ele>134</ele>
        <time>2021-02-11T21:07:18Z</time>
      </trkpt>
      <trkpt lat="44.43659" lon="1.13347">
        <ele>135</ele>
        <time>2021-02-11T21:08:09Z</time>
      </trkpt>
      <trkpt lat="44.43719" lon="1.13353">
        <ele>136</ele>
        <time>2021-02-11T21:08:57Z</time>
      </trkpt>
      <trkpt lat="44.43766" lon="1.1336">
        <ele>136</ele>
        <time>2021-02-11T21:09:35Z</time>
      </trkpt>
      <trkpt lat="44.4383" lon="1.13376">
        <ele>133</ele>
        <time>2021-02-11T21:10:27Z</time>
      </trkpt>
      <trkpt lat="44.43856" lon="1.13409">
        <ele>133</ele>
        <time>2021-02-11T21:10:55Z</time>
      </trkpt>
      <trkpt lat="44.43873" lon="1.13439">
        <ele>134</ele>
        <time>2021-02-11T21:11:17Z</time>
      </trkpt>
      <trkpt lat="44.4389" lon="1.13461">
        <ele>135</ele>
        <time>2021-02-11T21:11:35Z</time>
      </trkpt>
      <trkpt lat="44.43884" lon="1.13491">
        <ele>132</ele>
        <time>2021-02-11T21:11:53Z</time>
      </trkpt>
      <trkpt lat="44.43864" lon="1.13529">
        <ele>129</ele>
        <time>2021-02-11T21:12:20Z</time>
      </trkpt>
      <trkpt lat="44.43846" lon="1.13566">
        <ele>127</ele>
        <time>2021-02-11T21:12:46Z</time>
      </trkpt>
      <trkpt lat="44.43833" lon="1.13588">
        <ele>127</ele>
        <time>2021-02-11T21:13:02Z</time>
      </trkpt>
      <trkpt lat="44.4384" lon="1.13639">
        <ele>129</ele>
        <time>2021-02-11T21:13:32Z</time>
      </trkpt>
      <trkpt lat="44.43849" lon="1.13655">
        <ele>129</ele>
        <time>2021-02-11T21:13:43Z</time>
      </trkpt>
      <trkpt lat="44.43859" lon="1.13681">
        <ele>130</ele>
        <time>2021-02-11T21:14:00Z</time>
      </trkpt>
      <trkpt lat="44.43887" lon="1.1372">
        <ele>129</ele>
        <time>2021-02-11T21:14:32Z</time>
      </trkpt>
      <trkpt lat="44.43908" lon="1.13773">
        <ele>129</ele>
        <time>2021-02-11T21:15:06Z</time>
      </trkpt>
      <trkpt lat="44.43944" lon="1.13852">
        <ele>129</ele>
        <time>2021-02-11T21:16:00Z</time>
      </trkpt>
      <trkpt lat="44.43943" lon="1.13921">
        <ele>132</ele>
        <time>2021-02-11T21:16:39Z</time>
      </trkpt>
      <trkpt lat="44.43924" lon="1.13972">
        <ele>139</ele>
        <time>2021-02-11T21:17:12Z</time>
      </trkpt>
      <trkpt lat="44.43987" lon="1.14031">
        <ele>145</ele>
        <time>2021-02-11T21:18:13Z</time>
      </trkpt>
      <trkpt lat="44.44018" lon="1.14094">
        <ele>148</ele>
        <time>2021-02-11T21:18:57Z</time>
      </trkpt>
      <trkpt lat="44.44028" lon="1.14153">
        <ele>149</ele>
        <time>2021-02-11T21:19:31Z</time>
      </trkpt>
      <trkpt lat="44.44019" lon="1.1422">
        <ele>154</ele>
        <time>2021-02-11T21:20:10Z</time>
      </trkpt>
      <trkpt lat="44.44018" lon="1.14293">
        <ele>156</ele>
        <time>2021-02-11T21:20:52Z</time>
      </trkpt>
      <trkpt lat="44.4402" lon="1.14342">
        <ele>156</ele>
        <time>2021-02-11T21:21:20Z</time>
      </trkpt>
      <trkpt lat="44.44041" lon="1.14388">
        <ele>156</ele>
        <time>2021-02-11T21:21:51Z</time>
      </trkpt>
      <trkpt lat="44.44032" lon="1.14468">
        <ele>162</ele>
        <time>2021-02-11T21:22:38Z</time>
      </trkpt>
      <trkpt lat="44.44014" lon="1.14517">
        <ele>165</ele>
        <time>2021-02-11T21:23:09Z</time>
      </trkpt>
      <trkpt lat="44.44008" lon="1.14566">
        <ele>167</ele>
        <time>2021-02-11T21:23:38Z</time>
      </trkpt>
      <trkpt lat="44.44018" lon="1.1464">
        <ele>165</ele>
        <time>2021-02-11T21:24:21Z</time>
      </trkpt>
      <trkpt lat="44.44019" lon="1.14698">
        <ele>165</ele>
        <time>2021-02-11T21:24:54Z</time>
      </trkpt>
      <trkpt lat="44.4402" lon="1.14702">
        <ele>165</ele>
        <time>2021-02-11T21:24:56Z</time>
      </trkpt>
      <trkpt lat="44.44003" lon="1.14779">
        <ele>170</ele>
        <time>2021-02-11T21:25:42Z</time>
      </trkpt>
      <trkpt lat="44.4399" lon="1.14852">
        <ele>178</ele>
        <time>2021-02-11T21:26:25Z</time>
      </trkpt>
      <trkpt lat="44.43971" lon="1.14952">
        <ele>185</ele>
        <time>2021-02-11T21:27:25Z</time>
      </trkpt>
      <trkpt lat="44.4406" lon="1.14983">
        <ele>192</ele>
        <time>2021-02-11T21:28:38Z</time>
      </trkpt>
      <trkpt lat="44.44151" lon="1.15046">
        <ele>208</ele>
        <time>2021-02-11T21:29:59Z</time>
      </trkpt>
      <trkpt lat="44.44229" lon="1.15128">
        <ele>224</ele>
        <time>2021-02-11T21:31:17Z</time>
      </trkpt>
      <trkpt lat="44.44244" lon="1.15286">
        <ele>215</ele>
        <time>2021-02-11T21:32:48Z</time>
      </trkpt>
      <trkpt lat="44.44263" lon="1.15471">
        <ele>202</ele>
        <time>2021-02-11T21:34:35Z</time>
      </trkpt>
      <trkpt lat="44.44289" lon="1.15711">
        <ele>224</ele>
        <time>2021-02-11T21:36:54Z</time>
      </trkpt>
      <trkpt lat="44.44287" lon="1.15917">
        <ele>244</ele>
        <time>2021-02-11T21:38:52Z</time>
      </trkpt>
      <trkpt lat="44.4425" lon="1.16084">
        <ele>246</ele>
        <time>2021-02-11T21:40:32Z</time>
      </trkpt>
      <trkpt lat="44.44263" lon="1.16272">
        <ele>239</ele>
        <time>2021-02-11T21:42:20Z</time>
      </trkpt>
      <trkpt lat="44.44268" lon="1.16467">
        <ele>255</ele>
        <time>2021-02-11T21:44:11Z</time>
      </trkpt>
      <trkpt lat="44.44289" lon="1.16621">
        <ele>260</ele>
        <time>2021-02-11T21:45:41Z</time>
      </trkpt>
      <trkpt lat="44.44302" lon="1.16679">
        <ele>260</ele>
        <time>2021-02-11T21:46:16Z</time>
      </trkpt>
      <trkpt lat="44.44313" lon="1.16776">
        <ele>258</ele>
        <time>2021-02-11T21:47:12Z</time>
      </trkpt>
      <trkpt lat="44.44391" lon="1.16694">
        <ele>252</ele>
        <time>2021-02-11T21:48:30Z</time>
      </trkpt>
      <trkpt lat="44.44465" lon="1.16643">
        <ele>244</ele>
        <time>2021-02-11T21:49:36Z</time>
      </trkpt>
      <trkpt lat="44.44549" lon="1.16646">
        <ele>232</ele>
        <time>2021-02-11T21:50:43Z</time>
      </trkpt>
      <trkpt lat="44.44619" lon="1.16646">
        <ele>226</ele>
        <time>2021-02-11T21:51:39Z</time>
      </trkpt>
      <trkpt lat="44.44599" lon="1.16737">
        <ele>222</ele>
        <time>2021-02-11T21:52:34Z</time>
      </trkpt>
      <trkpt lat="44.44621" lon="1.1684">
        <ele>218</ele>
        <time>2021-02-11T21:53:35Z</time>
      </trkpt>
      <trkpt lat="44.44636" lon="1.16907">
        <ele>220</ele>
        <time>2021-02-11T21:54:15Z</time>
      </trkpt>
      <trkpt lat="44.44699" lon="1.17004">
        <ele>226</ele>
        <time>2021-02-11T21:55:30Z</time>
      </trkpt>
      <trkpt lat="44.44703" lon="1.17101">
        <ele>234</ele>
        <time>2021-02-11T21:56:26Z</time>
      </trkpt>
      <trkpt lat="44.44701" lon="1.17158">
        <ele>236</ele>
        <time>2021-02-11T21:56:58Z</time>
      </trkpt>
      <trkpt lat="44.44807" lon="1.17093">
        <ele>229</ele>
        <time>2021-02-11T21:58:31Z</time>
      </trkpt>
      <trkpt lat="44.44972" lon="1.17061">
        <ele>227</ele>
        <time>2021-02-11T22:00:44Z</time>
      </trkpt>
      <trkpt lat="44.45037" lon="1.17051">
        <ele>226</ele>
        <time>2021-02-11T22:01:37Z</time>
      </trkpt>
      <trkpt lat="44.45058" lon="1.17007">
        <ele>225</ele>
        <time>2021-02-11T22:02:07Z</time>
      </trkpt>
      <trkpt lat="44.45201" lon="1.16986">
        <ele>225</ele>
        <time>2021-02-11T22:04:02Z</time>
      </trkpt>
      <trkpt lat="44.45355" lon="1.16843">
        <ele>233</ele>
        <time>2021-02-11T22:06:30Z</time>
      </trkpt>
      <trkpt lat="44.45494" lon="1.16743">
        <ele>233</ele>
        <time>2021-02-11T22:08:35Z</time>
      </trkpt>
      <trkpt lat="44.45641" lon="1.16618">
        <ele>218</ele>
        <time>2021-02-11T22:10:53Z</time>
      </trkpt>
      <trkpt lat="44.45877" lon="1.16461">
        <ele>216</ele>
        <time>2021-02-11T22:14:22Z</time>
      </trkpt>
      <trkpt lat="44.45996" lon="1.16354">
        <ele>215</ele>
        <time>2021-02-11T22:16:15Z</time>
      </trkpt>
      <trkpt lat="44.46211" lon="1.16275">
        <ele>214</ele>
        <time>2021-02-11T22:19:13Z</time>
      </trkpt>
      <trkpt lat="44.46248" lon="1.16184">
        <ele>215</ele>
        <time>2021-02-11T22:20:13Z</time>
      </trkpt>
      <trkpt lat="44.46206" lon="1.15933">
        <ele>198</ele>
        <time>2021-02-11T22:22:40Z</time>
      </trkpt>
      <trkpt lat="44.4617" lon="1.1582">
        <ele>196</ele>
        <time>2021-02-11T22:23:51Z</time>
      </trkpt>
      <trkpt lat="44.46176" lon="1.15687">
        <ele>191</ele>
        <time>2021-02-11T22:25:07Z</time>
      </trkpt>
      <trkpt lat="44.46222" lon="1.15547">
        <ele>187</ele>
        <time>2021-02-11T22:26:35Z</time>
      </trkpt>
      <trkpt lat="44.46304" lon="1.15474">
        <ele>178</ele>
        <time>2021-02-11T22:27:53Z</time>
      </trkpt>
      <trkpt lat="44.46304" lon="1.15332">
        <ele>167</ele>
        <time>2021-02-11T22:29:14Z</time>
      </trkpt>
      <trkpt lat="44.46317" lon="1.15241">
        <ele>151</ele>
        <time>2021-02-11T22:30:07Z</time>
      </trkpt>
      <trkpt lat="44.46287" lon="1.15147">
        <ele>141</ele>
        <time>2021-02-11T22:31:06Z</time>
      </trkpt>
      <trkpt lat="44.46287" lon="1.15049">
        <ele>122</ele>
        <time>2021-02-11T22:32:02Z</time>
      </trkpt>
      <trkpt lat="44.46254" lon="1.14968">
        <ele>112</ele>
        <time>2021-02-11T22:32:55Z</time>
      </trkpt>
      <trkpt lat="44.46217" lon="1.14916">
        <ele>104</ele>
        <time>2021-02-11T22:33:37Z</time>
      </trkpt>
      <trkpt lat="44.46224" lon="1.14858">
        <ele>101</ele>
        <time>2021-02-11T22:34:11Z</time>
      </trkpt>
      <trkpt lat="44.46243" lon="1.14798">
        <ele>100</ele>
        <time>2021-02-11T22:34:49Z</time>
      </trkpt>
      <trkpt lat="44.46271" lon="1.14734">
        <ele>105</ele>
        <time>2021-02-11T22:35:31Z</time>
      </trkpt>
      <trkpt lat="44.46267" lon="1.14675">
        <ele>111</ele>
        <time>2021-02-11T22:36:05Z</time>
      </trkpt>
      <trkpt lat="44.46254" lon="1.14654">
        <ele>112</ele>
        <time>2021-02-11T22:36:21Z</time>
      </trkpt>
      <trkpt lat="44.46236" lon="1.14644">
        <ele>115</ele>
        <time>2021-02-11T22:36:37Z</time>
      </trkpt>
      <trkpt lat="44.46188" lon="1.14631">
        <ele>126</ele>
        <time>2021-02-11T22:37:16Z</time>
      </trkpt>
      <trkpt lat="44.4614" lon="1.1462">
        <ele>136</ele>
        <time>2021-02-11T22:37:55Z</time>
      </trkpt>
      <trkpt lat="44.46102" lon="1.14615">
        <ele>142</ele>
        <time>2021-02-11T22:38:25Z</time>
      </trkpt>
      <trkpt lat="44.46065" lon="1.14604">
        <ele>147</ele>
        <time>2021-02-11T22:38:56Z</time>
      </trkpt>
      <trkpt lat="44.4604" lon="1.14592">
        <ele>151</ele>
        <time>2021-02-11T22:39:17Z</time>
      </trkpt>
      <trkpt lat="44.46009" lon="1.14566">
        <ele>158</ele>
        <time>2021-02-11T22:39:46Z</time>
      </trkpt>
      <trkpt lat="44.45979" lon="1.14546">
        <ele>164</ele>
        <time>2021-02-11T22:40:12Z</time>
      </trkpt>
      <trkpt lat="44.45943" lon="1.14543">
        <ele>167</ele>
        <time>2021-02-11T22:40:41Z</time>
      </trkpt>
      <trkpt lat="44.4592" lon="1.14541">
        <ele>169</ele>
        <time>2021-02-11T22:41:00Z</time>
      </trkpt>
      <trkpt lat="44.45919" lon="1.14515">
        <ele>174</ele>
        <time>2021-02-11T22:41:15Z</time>
      </trkpt>
      <trkpt lat="44.45908" lon="1.14487">
        <ele>179</ele>
        <time>2021-02-11T22:41:33Z</time>
      </trkpt>
      <trkpt lat="44.45899" lon="1.14468">
        <ele>182</ele>
        <time>2021-02-11T22:41:46Z</time>
      </trkpt>
      <trkpt lat="44.45885" lon="1.14433">
        <ele>186</ele>
        <time>2021-02-11T22:42:09Z</time>
      </trkpt>
      <trkpt lat="44.45872" lon="1.14408">
        <ele>190</ele>
        <time>2021-02-11T22:42:26Z</time>
      </trkpt>
      <trkpt lat="44.45858" lon="1.14386">
        <ele>192</ele>
        <time>2021-02-11T22:42:43Z</time>
      </trkpt>
      <trkpt lat="44.45844" lon="1.14348">
        <ele>197</ele>
        <time>2021-02-11T22:43:08Z</time>
      </trkpt>
      <trkpt lat="44.45836" lon="1.14326">
        <ele>200</ele>
        <time>2021-02-11T22:43:22Z</time>
      </trkpt>
      <trkpt lat="44.4582" lon="1.14298">
        <ele>203</ele>
        <time>2021-02-11T22:43:42Z</time>
      </trkpt>
      <trkpt lat="44.4581" lon="1.14287">
        <ele>204</ele>
        <time>2021-02-11T22:43:53Z</time>
      </trkpt>
      <trkpt lat="44.45787" lon="1.14268">
        <ele>207</ele>
        <time>2021-02-11T22:44:14Z</time>
      </trkpt>
      <trkpt lat="44.45753" lon="1.14246">
        <ele>210</ele>
        <time>2021-02-11T22:44:44Z</time>
      </trkpt>
      <trkpt lat="44.45729" lon="1.14231">
        <ele>211</ele>
        <time>2021-02-11T22:45:05Z</time>
      </trkpt>
      <trkpt lat="44.45702" lon="1.1421">
        <ele>213</ele>
        <time>2021-02-11T22:45:30Z</time>
      </trkpt>
      <trkpt lat="44.45682" lon="1.14188">
        <ele>216</ele>
        <time>2021-02-11T22:45:50Z</time>
      </trkpt>
      <trkpt lat="44.45665" lon="1.14177">
        <ele>219</ele>
        <time>2021-02-11T22:46:05Z</time>
      </trkpt>
      <trkpt lat="44.4564" lon="1.14162">
        <ele>221</ele>
        <time>2021-02-11T22:46:27Z</time>
      </trkpt>
      <trkpt lat="44.45594" lon="1.14147">
        <ele>225</ele>
        <time>2021-02-11T22:47:05Z</time>
      </trkpt>
      <trkpt lat="44.45477" lon="1.14056">
        <ele>235</ele>
        <time>2021-02-11T22:48:52Z</time>
      </trkpt>
      <trkpt lat="44.45438" lon="1.13977">
        <ele>236</ele>
        <time>2021-02-11T22:49:47Z</time>
      </trkpt>
      <trkpt lat="44.45399" lon="1.13849">
        <ele>231</ele>
        <time>2021-02-11T22:51:06Z</time>
      </trkpt>
      <trkpt lat="44.45386" lon="1.1374">
        <ele>231</ele>
        <time>2021-02-11T22:52:09Z</time>
      </trkpt>
      <trkpt lat="44.45367" lon="1.13698">
        <ele>230</ele>
        <time>2021-02-11T22:52:38Z</time>
      </trkpt>
      <trkpt lat="44.45344" lon="1.13694">
        <ele>229</ele>
        <time>2021-02-11T22:52:56Z</time>
      </trkpt>
      <trkpt lat="44.45282" lon="1.13669">
        <ele>230</ele>
        <time>2021-02-11T22:53:48Z</time>
      </trkpt>
      <trkpt lat="44.45236" lon="1.13669">
        <ele>230</ele>
        <time>2021-02-11T22:54:25Z</time>
      </trkpt>
      <trkpt lat="44.45195" lon="1.13673">
        <ele>229</ele>
        <time>2021-02-11T22:54:58Z</time>
      </trkpt>
      <trkpt lat="44.45148" lon="1.13655">
        <ele>231</ele>
        <time>2021-02-11T22:55:37Z</time>
      </trkpt>
      <trkpt lat="44.45099" lon="1.13655">
        <ele>232</ele>
        <time>2021-02-11T22:56:16Z</time>
      </trkpt>
      <trkpt lat="44.4505" lon="1.13655">
        <ele>232</ele>
        <time>2021-02-11T22:56:55Z</time>
      </trkpt>
      <trkpt lat="44.45004" lon="1.13633">
        <ele>231</ele>
        <time>2021-02-11T22:57:34Z</time>
      </trkpt>
      <trkpt lat="44.44963" lon="1.13619">
        <ele>231</ele>
        <time>2021-02-11T22:58:08Z</time>
      </trkpt>
      <trkpt lat="44.44924" lon="1.13611">
        <ele>232</ele>
        <time>2021-02-11T22:58:39Z</time>
      </trkpt>
      <trkpt lat="44.44883" lon="1.13586">
        <ele>233</ele>
        <time>2021-02-11T22:59:15Z</time>
      </trkpt>
      <trkpt lat="44.44821" lon="1.13518">
        <ele>237</ele>
        <time>2021-02-11T23:00:18Z</time>
      </trkpt>
      <trkpt lat="44.448" lon="1.1338">
        <ele>239</ele>
        <time>2021-02-11T23:01:39Z</time>
      </trkpt>
      <trkpt lat="44.44764" lon="1.13261">
        <ele>238</ele>
        <time>2021-02-11T23:02:53Z</time>
      </trkpt>
      <trkpt lat="44.44718" lon="1.13204">
        <ele>232</ele>
        <time>2021-02-11T23:03:42Z</time>
      </trkpt>
      <trkpt lat="44.44654" lon="1.13092">
        <ele>228</ele>
        <time>2021-02-11T23:05:04Z</time>
      </trkpt>
      <trkpt lat="44.4462" lon="1.13016">
        <ele>228</ele>
        <time>2021-02-11T23:05:55Z</time>
      </trkpt>
      <trkpt lat="44.44574" lon="1.12868">
        <ele>237</ele>
        <time>2021-02-11T23:07:28Z</time>
      </trkpt>
      <trkpt lat="44.44538" lon="1.12745">
        <ele>241</ele>
        <time>2021-02-11T23:08:44Z</time>
      </trkpt>
      <trkpt lat="44.44502" lon="1.12605">
        <ele>239</ele>
        <time>2021-02-11T23:10:09Z</time>
      </trkpt>
      <trkpt lat="44.44486" lon="1.12475">
        <ele>239</ele>
        <time>2021-02-11T23:11:24Z</time>
      </trkpt>
      <trkpt lat="44.44478" lon="1.1233">
        <ele>245</ele>
        <time>2021-02-11T23:12:47Z</time>
      </trkpt>
      <trkpt lat="44.4444" lon="1.12226">
        <ele>251</ele>
        <time>2021-02-11T23:13:54Z</time>
      </trkpt>
      <trkpt lat="44.44414" lon="1.12175">
        <ele>253</ele>
        <time>2021-02-11T23:14:30Z</time>
      </trkpt>
      <trkpt lat="44.44391" lon="1.12197">
        <ele>250</ele>
        <time>2021-02-11T23:14:52Z</time>
      </trkpt>
      <trkpt lat="44.44362" lon="1.12161">
        <ele>251</ele>
        <time>2021-02-11T23:15:23Z</time>
      </trkpt>
      <trkpt lat="44.44339" lon="1.12132">
        <ele>253</ele>
        <time>2021-02-11T23:15:48Z</time>
      </trkpt>
      <trkpt lat="44.44265" lon="1.12117">
        <ele>249</ele>
        <time>2021-02-11T23:16:48Z</time>
      </trkpt>
      <trkpt lat="44.44223" lon="1.12154">
        <ele>242</ele>
        <time>2021-02-11T23:17:27Z</time>
      </trkpt>
      <trkpt lat="44.44192" lon="1.12193">
        <ele>237</ele>
        <time>2021-02-11T23:18:01Z</time>
      </trkpt>
      <trkpt lat="44.44136" lon="1.12211">
        <ele>233</ele>
        <time>2021-02-11T23:18:47Z</time>
      </trkpt>
      <trkpt lat="44.44097" lon="1.12218">
        <ele>231</ele>
        <time>2021-02-11T23:19:18Z</time>
      </trkpt>
      <trkpt lat="44.44061" lon="1.12233">
        <ele>230</ele>
        <time>2021-02-11T23:19:48Z</time>
      </trkpt>
      <trkpt lat="44.44015" lon="1.12215">
        <ele>233</ele>
        <time>2021-02-11T23:20:27Z</time>
      </trkpt>
      <trkpt lat="44.43955" lon="1.12237">
        <ele>232</ele>
        <time>2021-02-11T23:21:16Z</time>
      </trkpt>
      <trkpt lat="44.4393" lon="1.1225">
        <ele>232</ele>
        <time>2021-02-11T23:21:38Z</time>
      </trkpt>
      <trkpt lat="44.43909" lon="1.12278">
        <ele>230</ele>
        <time>2021-02-11T23:22:01Z</time>
      </trkpt>
      <trkpt lat="44.4389" lon="1.12295">
        <ele>228</ele>
        <time>2021-02-11T23:22:19Z</time>
      </trkpt>
      <trkpt lat="44.4386" lon="1.12314">
        <ele>227</ele>
        <time>2021-02-11T23:22:45Z</time>
      </trkpt>
      <trkpt lat="44.43832" lon="1.12324">
        <ele>227</ele>
        <time>2021-02-11T23:23:08Z</time>
      </trkpt>
      <trkpt lat="44.43808" lon="1.12332">
        <ele>228</ele>
        <time>2021-02-11T23:23:28Z</time>
      </trkpt>
      <trkpt lat="44.43779" lon="1.12335">
        <ele>228</ele>
        <time>2021-02-11T23:23:51Z</time>
      </trkpt>
      <trkpt lat="44.43759" lon="1.12341">
        <ele>227</ele>
        <time>2021-02-11T23:24:08Z</time>
      </trkpt>
      <trkpt lat="44.4372" lon="1.12351">
        <ele>226</ele>
        <time>2021-02-11T23:24:40Z</time>
      </trkpt>
      <trkpt lat="44.43701" lon="1.12363">
        <ele>225</ele>
        <time>2021-02-11T23:24:56Z</time>
      </trkpt>
      <trkpt lat="44.43681" lon="1.12392">
        <ele>229</ele>
        <time>2021-02-11T23:25:19Z</time>
      </trkpt>
      <trkpt lat="44.43662" lon="1.12416">
        <ele>233</ele>
        <time>2021-02-11T23:25:40Z</time>
      </trkpt>
      <trkpt lat="44.43645" lon="1.12426">
        <ele>230</ele>
        <time>2021-02-11T23:25:55Z</time>
      </trkpt>
      <trkpt lat="44.43617" lon="1.12463">
        <ele>228</ele>
        <time>2021-02-11T23:26:25Z</time>
      </trkpt>
      <trkpt lat="44.43596" lon="1.12479">
        <ele>228</ele>
        <time>2021-02-11T23:26:44Z</time>
      </trkpt>
      <trkpt lat="44.43583" lon="1.12521">
        <ele>230</ele>
        <time>2021-02-11T23:27:11Z</time>
      </trkpt>
      <trkpt lat="44.43581" lon="1.12562">
        <ele>230</ele>
        <time>2021-02-11T23:27:34Z</time>
      </trkpt>
      <trkpt lat="44.43579" lon="1.12615">
        <ele>227</ele>
        <time>2021-02-11T23:28:05Z</time>
      </trkpt>
      <trkpt lat="44.43551" lon="1.12706">
        <ele>208</ele>
        <time>2021-02-11T23:29:01Z</time>
      </trkpt>
      <trkpt lat="44.43534" lon="1.12731">
        <ele>200</ele>
        <time>2021-02-11T23:29:21Z</time>
      </trkpt>
      <trkpt lat="44.43515" lon="1.12773">
        <ele>191</ele>
        <time>2021-02-11T23:29:49Z</time>
      </trkpt>
      <trkpt lat="44.43498" lon="1.12817">
        <ele>185</ele>
        <time>2021-02-11T23:30:18Z</time>
      </trkpt>
      <trkpt lat="44.43487" lon="1.12847">
        <ele>180</ele>
        <time>2021-02-11T23:30:37Z</time>
      </trkpt>
      <trkpt lat="44.43484" lon="1.12882">
        <ele>177</ele>
        <time>2021-02-11T23:30:57Z</time>
      </trkpt>
      <trkpt lat="44.43465" lon="1.12891">
        <ele>173</ele>
        <time>2021-02-11T23:31:13Z</time>
      </trkpt>
      <trkpt lat="44.43457" lon="1.12872">
        <ele>173</ele>
        <time>2021-02-11T23:31:26Z</time>
      </trkpt>
      <trkpt lat="44.43445" lon="1.12876">
        <ele>170</ele>
        <time>2021-02-11T23:31:36Z</time>
      </trkpt>
      <trkpt lat="44.43436" lon="1.12898">
        <ele>168</ele>
        <time>2021-02-11T23:31:50Z</time>
      </trkpt>
      <trkpt lat="44.43423" lon="1.12902">
        <ele>166</ele>
        <time>2021-02-11T23:32:01Z</time>
      </trkpt>
      <trkpt lat="44.43418" lon="1.1293">
        <ele>165</ele>
        <time>2021-02-11T23:32:18Z</time>
      </trkpt>
      <trkpt lat="44.43417" lon="1.12965">
        <ele>163</ele>
        <time>2021-02-11T23:32:38Z</time>
      </trkpt>
      <trkpt lat="44.43415" lon="1.12993">
        <ele>162</ele>
        <time>2021-02-11T23:32:54Z</time>
      </trkpt>
      <trkpt lat="44.4341" lon="1.13013">
        <ele>160</ele>
        <time>2021-02-11T23:33:06Z</time>
      </trkpt>
      <trkpt lat="44.43408" lon="1.13029">
        <ele>158</ele>
        <time>2021-02-11T23:33:15Z</time>
      </trkpt>
      <trkpt lat="44.43395" lon="1.13041">
        <ele>156</ele>
        <time>2021-02-11T23:33:28Z</time>
      </trkpt>
      <trkpt lat="44.43372" lon="1.13073">
        <ele>152</ele>
        <time>2021-02-11T23:33:54Z</time>
      </trkpt>
      <trkpt lat="44.43358" lon="1.13091">
        <ele>149</ele>
        <time>2021-02-11T23:34:09Z</time>
      </trkpt>
      <trkpt lat="44.43348" lon="1.13112">
        <ele>147</ele>
        <time>2021-02-11T23:34:23Z</time>
      </trkpt>
      <trkpt lat="44.43339" lon="1.13118">
        <ele>146</ele>
        <time>2021-02-11T23:34:31Z</time>
      </trkpt>
      <trkpt lat="44.43369" lon="1.13138">
        <ele>146</ele>
        <time>2021-02-11T23:34:58Z</time>
      </trkpt>
      <trkpt lat="44.43394" lon="1.13179">
        <ele>145</ele>
        <time>2021-02-11T23:35:29Z</time>
      </trkpt>
      <trkpt lat="44.43413" lon="1.13228">
        <ele>142</ele>
        <time>2021-02-11T23:36:00Z</time>
      </trkpt>
      <trkpt lat="44.4344" lon="1.13257">
        <ele>141</ele>
        <time>2021-02-11T23:36:28Z</time>
      </trkpt>
      <trkpt lat="44.43467" lon="1.13283">
        <ele>138</ele>
        <time>2021-02-11T23:36:54Z</time>
      </trkpt>
      <trkpt lat="44.43502" lon="1.13294">
        <ele>137</ele>
        <time>2021-02-11T23:37:23Z</time>
      </trkpt>
      <trkpt lat="44.43525" lon="1.13318">
        <ele>134</ele>
        <time>2021-02-11T23:37:46Z</time>
      </trkpt>
      <trkpt lat="44.43513" lon="1.13391">
        <ele>130</ele>
        <time>2021-02-11T23:38:28Z</time>
      </trkpt>
      <trkpt lat="44.43494" lon="1.13447">
        <ele>130</ele>
        <time>2021-02-11T23:39:04Z</time>
      </trkpt>
      <trkpt lat="44.4349" lon="1.1347">
        <ele>130</ele>
        <time>2021-02-11T23:39:17Z</time>
      </trkpt>
      <trkpt lat="44.43466" lon="1.13454">
        <ele>132</ele>
        <time>2021-02-11T23:39:39Z</time>
      </trkpt>
      <trkpt lat="44.43447" lon="1.13446">
        <ele>133</ele>
        <time>2021-02-11T23:39:55Z</time>
      </trkpt>
      <trkpt lat="44.4342" lon="1.1348">
        <ele>134</ele>
        <time>2021-02-11T23:40:24Z</time>
      </trkpt>
      <trkpt lat="44.43392" lon="1.13492">
        <ele>135</ele>
        <time>2021-02-11T23:40:47Z</time>
      </trkpt>
      <trkpt lat="44.43353" lon="1.13513">
        <ele>137</ele>
        <time>2021-02-11T23:41:21Z</time>
      </trkpt>
      <trkpt lat="44.43315" lon="1.1352">
        <ele>139</ele>
        <time>2021-02-11T23:41:51Z</time>
      </trkpt>
      <trkpt lat="44.4326" lon="1.13544">
        <ele>140</ele>
        <time>2021-02-11T23:42:37Z</time>
      </trkpt>
      <trkpt lat="44.43216" lon="1.13579">
        <ele>140</ele>
        <time>2021-02-11T23:43:18Z</time>
      </trkpt>
      <trkpt lat="44.4317" lon="1.13633">
        <ele>138</ele>
        <time>2021-02-11T23:44:06Z</time>
      </trkpt>
      <trkpt lat="44.43133" lon="1.13693">
        <ele>138</ele>
        <time>2021-02-11T23:44:51Z</time>
      </trkpt>
      <trkpt lat="44.43109" lon="1.13723">
        <ele>138</ele>
        <time>2021-02-11T23:45:17Z</time>
      </trkpt>
      <trkpt lat="44.43008" lon="1.13771">
        <ele>144</ele>
        <time>2021-02-11T23:46:42Z</time>
      </trkpt>
      <trkpt lat="44.42986" lon="1.1379">
        <ele>144</ele>
        <time>2021-02-11T23:47:03Z</time>
      </trkpt>
      <trkpt lat="44.42909" lon="1.13865">
        <ele>143</ele>
        <time>2021-02-11T23:48:18Z</time>
      </trkpt>
      <trkpt lat="44.42832" lon="1.13992">
        <ele>141</ele>
        <time>2021-02-11T23:49:53Z</time>
      </trkpt>
      <trkpt lat="44.42799" lon="1.1404">
        <ele>142</ele>
        <time>2021-02-11T23:50:32Z</time>
      </trkpt>
      <trkpt lat="44.42777" lon="1.14056">
        <ele>142</ele>
        <time>2021-02-11T23:50:51Z</time>
      </trkpt>
      <trkpt lat="44.42733" lon="1.1407">
        <ele>144</ele>
        <time>2021-02-11T23:51:28Z</time>
      </trkpt>
      <trkpt lat="44.42672" lon="1.14084">
        <ele>145</ele>
        <time>2021-02-11T23:52:17Z</time>
      </trkpt>
      <trkpt lat="44.42643" lon="1.1409">
        <ele>146</ele>
        <time>2021-02-11T23:52:41Z</time>
      </trkpt>
      <trkpt lat="44.42605" lon="1.14096">
        <ele>149</ele>
        <time>2021-02-11T23:53:11Z</time>
      </trkpt>
      <trkpt lat="44.42562" lon="1.14108">
        <ele>150</ele>
        <time>2021-02-11T23:53:46Z</time>
      </trkpt>
      <trkpt lat="44.42529" lon="1.14115">
        <ele>151</ele>
        <time>2021-02-11T23:54:13Z</time>
      </trkpt>
      <trkpt lat="44.42412" lon="1.14117">
        <ele>154</ele>
        <time>2021-02-11T23:55:47Z</time>
      </trkpt>
      <trkpt lat="44.42349" lon="1.14134">
        <ele>155</ele>
        <time>2021-02-11T23:56:38Z</time>
      </trkpt>
      <trkpt lat="44.42274" lon="1.14178">
        <ele>152</ele>
        <time>2021-02-11T23:57:43Z</time>
      </trkpt>
      <trkpt lat="44.42255" lon="1.14208">
        <ele>150</ele>
        <time>2021-02-11T23:58:06Z</time>
      </trkpt>
      <trkpt lat="44.42251" lon="1.1428">
        <ele>146</ele>
        <time>2021-02-11T23:58:47Z</time>
      </trkpt>
      <trkpt lat="44.42206" lon="1.14325">
        <ele>146</ele>
        <time>2021-02-11T23:59:32Z</time>
      </trkpt>
      <trkpt lat="44.42147" lon="1.14357">
        <ele>147</ele>
        <time>2021-02-12T00:00:22Z</time>
      </trkpt>
      <trkpt lat="44.42087" lon="1.14368">
        <ele>148</ele>
        <time>2021-02-12T00:01:11Z</time>
      </trkpt>
      <trkpt lat="44.42058" lon="1.14366">
        <ele>149</ele>
        <time>2021-02-12T00:01:34Z</time>
      </trkpt>
      <trkpt lat="44.42023" lon="1.14356">
        <ele>150</ele>
        <time>2021-02-12T00:02:03Z</time>
      </trkpt>
      <trkpt lat="44.42015" lon="1.14356">
        <ele>150</ele>
        <time>2021-02-12T00:02:09Z</time>
      </trkpt>
      <trkpt lat="44.42004" lon="1.14354">
        <ele>151</ele>
        <time>2021-02-12T00:02:18Z</time>
      </trkpt>
      <trkpt lat="44.41971" lon="1.14366">
        <ele>150</ele>
        <time>2021-02-12T00:02:45Z</time>
      </trkpt>
      <trkpt lat="44.41924" lon="1.14457">
        <ele>150</ele>
        <time>2021-02-12T00:03:49Z</time>
      </trkpt>
      <trkpt lat="44.41869" lon="1.14421">
        <ele>149</ele>
        <time>2021-02-12T00:04:38Z</time>
      </trkpt>
      <trkpt lat="44.41802" lon="1.14289">
        <ele>152</ele>
        <time>2021-02-12T00:06:11Z</time>
      </trkpt>
      <trkpt lat="44.41691" lon="1.14083">
        <ele>160</ele>
        <time>2021-02-12T00:08:38Z</time>
      </trkpt>
      <trkpt lat="44.41474" lon="1.14174">
        <ele>156</ele>
        <time>2021-02-12T00:11:40Z</time>
      </trkpt>
      <trkpt lat="44.41296" lon="1.14203">
        <ele>159</ele>
        <time>2021-02-12T00:14:03Z</time>
      </trkpt>
      <trkpt lat="44.41193" lon="1.14272">
        <ele>160</ele>
        <time>2021-02-12T00:15:34Z</time>
      </trkpt>
      <trkpt lat="44.41126" lon="1.14358">
        <ele>161</ele>
        <time>2021-02-12T00:16:47Z</time>
      </trkpt>
      <trkpt lat="44.4111" lon="1.14416">
        <ele>162</ele>
        <time>2021-02-12T00:17:23Z</time>
      </trkpt>
      <trkpt lat="44.41105" lon="1.14492">
        <ele>164</ele>
        <time>2021-02-12T00:18:06Z</time>
      </trkpt>
      <trkpt lat="44.41133" lon="1.14528">
        <ele>167</ele>
        <time>2021-02-12T00:18:37Z</time>
      </trkpt>
      <trkpt lat="44.41224" lon="1.14514">
        <ele>170</ele>
        <time>2021-02-12T00:19:50Z</time>
      </trkpt>
      <trkpt lat="44.41301" lon="1.14535">
        <ele>172</ele>
        <time>2021-02-12T00:20:53Z</time>
      </trkpt>
      <trkpt lat="44.41378" lon="1.14582">
        <ele>173</ele>
        <time>2021-02-12T00:22:00Z</time>
      </trkpt>
      <trkpt lat="44.4144" lon="1.14719">
        <ele>176</ele>
        <time>2021-02-12T00:23:33Z</time>
      </trkpt>
      <trkpt lat="44.41474" lon="1.14882">
        <ele>179</ele>
        <time>2021-02-12T00:25:10Z</time>
      </trkpt>
      <trkpt lat="44.41499" lon="1.14976">
        <ele>178</ele>
        <time>2021-02-12T00:26:08Z</time>
      </trkpt>
      <trkpt lat="44.41461" lon="1.1499">
        <ele>180</ele>
        <time>2021-02-12T00:26:39Z</time>
      </trkpt>
      <trkpt lat="44.41432" lon="1.15062">
        <ele>177</ele>
        <time>2021-02-12T00:27:26Z</time>
      </trkpt>
      <trkpt lat="44.41432" lon="1.15116">
        <ele>176</ele>
        <time>2021-02-12T00:27:57Z</time>
      </trkpt>
      <trkpt lat="44.41425" lon="1.15145">
        <ele>177</ele>
        <time>2021-02-12T00:28:15Z</time>
      </trkpt>
      <trkpt lat="44.41502" lon="1.15253">
        <ele>185</ele>
        <time>2021-02-12T00:29:42Z</time>
      </trkpt>
      <trkpt lat="44.4155" lon="1.15361">
        <ele>193</ele>
        <time>2021-02-12T00:30:55Z</time>
      </trkpt>
      <trkpt lat="44.4158" lon="1.15422">
        <ele>191</ele>
        <time>2021-02-12T00:31:37Z</time>
      </trkpt>
      <trkpt lat="44.41608" lon="1.15512">
        <ele>185</ele>
        <time>2021-02-12T00:32:33Z</time>
      </trkpt>
      <trkpt lat="44.41629" lon="1.15723">
        <ele>178</ele>
        <time>2021-02-12T00:34:35Z</time>
      </trkpt>
    </trkseg>
  </trk>
</gpx>